Crescent, Missouri
Current Conditions -  °F | °C
As of 2:54 AM on Monday 20 Oct 2014 (Local Time) from KSUS Reporting Station
Overcast Overcast  
Wind Chill: 56°   Ceiling: 10000
Heat Index: 56°   Visibility: 10mi
Dew Point: 47°   Wind: 8mph
Humidity: 72%   Direction: 240°WSW
Pressure: 29.99"   Gusts: NA
Location:  38.5081°N, 90.6523°W
Report Text: KSUS 200754Z AUTO 24007KT 10SM OVC100 13/08 A2999 RMK AO2 SLP154 T01330083
Loading
Personal Weather Stations






























Interactive Weather Map
Tropical Storm Tracking
New forecast layout! Learn more

10-Day Weather Forecast

Advertisements
Track Severe Weather on mobile